Time;durP1;ratioP1;P1;durP2;ratioP2;P2;SDS_P1;SDS_P2;PMS_P1;PMS_P2;Temp;Humidity;BMP_temperature;BMP_pressure;BME280_temperature;BME280_humidity;BME280_pressure;Samples;Min_cycle;Max_cycle;Signal;HPM_P1;HPM_P2
2023/03/08 00:00:14;;;;;;;1.13;0.70;;;2.40;74.70;;;;;;5090993;28;20036;-78
2023/03/08 00:02:39;;;;;;;1.37;0.70;;;2.40;74.80;;;;;;5068875;28;20051;-78
2023/03/08 00:05:06;;;;;;;1.27;0.80;;;2.40;74.70;;;;;;5040849;28;20033;-78
2023/03/08 00:07:32;;;;;;;1.90;0.90;;;2.40;74.80;;;;;;5074005;28;20044;-79
2023/03/08 00:09:58;;;;;;;2.20;0.80;;;2.40;74.80;;;;;;5088736;28;20104;-78
2023/03/08 00:12:24;;;;;;;2.87;1.10;;;2.70;75.00;;;;;;5077696;28;20576;-78
2023/03/08 00:14:50;;;;;;;1.57;0.90;;;2.40;74.80;;;;;;5075511;28;20051;-78
2023/03/08 00:17:16;;;;;;;1.00;0.70;;;2.40;74.80;;;;;;5077956;28;20118;-78
2023/03/08 00:19:43;;;;;;;2.53;1.00;;;2.40;74.90;;;;;;5077865;28;20032;-78
2023/03/08 00:22:09;;;;;;;1.77;0.90;;;2.40;74.90;;;;;;5077703;28;20124;-78
2023/03/08 00:24:35;;;;;;;1.63;0.70;;;2.40;74.90;;;;;;5077845;28;20048;-78
2023/03/08 00:27:01;;;;;;;1.87;1.00;;;2.30;74.90;;;;;;5077429;28;20471;-78
2023/03/08 00:29:27;;;;;;;2.13;0.83;;;2.80;75.20;;;;;;5086097;27;20028;-78
2023/03/08 00:31:52;;;;;;;1.57;0.90;;;2.40;75.00;;;;;;5044326;28;20472;-79
2023/03/08 00:34:18;;;;;;;2.53;1.03;;;2.30;74.90;;;;;;5077789;28;20127;-78
2023/03/08 00:36:44;;;;;;;2.20;0.80;;;3.00;75.40;;;;;;5077816;28;20043;-78
2023/03/08 00:39:15;;;;;;;2.37;1.10;;;2.40;75.00;;;;;;5060530;28;20499;-78
2023/03/08 00:41:41;;;;;;;2.50;0.80;;;2.40;75.10;;;;;;5077727;28;20418;-78
2023/03/08 00:44:07;;;;;;;0.80;0.57;;;2.80;75.30;;;;;;5060778;28;20093;-78
2023/03/08 00:46:33;;;;;;;2.53;0.80;;;2.30;74.90;;;;;;5057366;28;20040;-79
2023/03/08 00:48:59;;;;;;;2.87;1.00;;;2.30;75.00;;;;;;5077272;28;20123;-78
2023/03/08 00:51:25;;;;;;;3.20;0.73;;;3.00;75.40;;;;;;5060456;28;20046;-78
2023/03/08 00:53:51;;;;;;;1.70;0.80;;;2.30;75.00;;;;;;5083413;28;20048;-79
2023/03/08 00:56:17;;;;;;;2.20;1.00;;;2.30;75.00;;;;;;5077205;28;20036;-78
2023/03/08 00:58:43;;;;;;;3.20;1.00;;;2.30;75.40;;;;;;5077016;28;20537;-78
2023/03/08 01:01:14;;;;;;;2.43;0.70;;;2.30;75.00;;;;;;5110581;28;20541;-78
2023/03/08 01:03:39;;;;;;;1.97;0.70;;;2.30;75.00;;;;;;5093805;28;20048;-79
2023/03/08 01:06:08;;;;;;;1.20;0.67;;;2.30;75.00;;;;;;5080795;28;20421;-78
2023/03/08 01:08:34;;;;;;;1.43;0.90;;;2.30;75.00;;;;;;5073568;28;20495;-79
2023/03/08 01:11:00;;;;;;;2.33;0.77;;;2.30;75.00;;;;;;5076870;28;20032;-79
2023/03/08 01:13:30;;;;;;;2.13;0.83;;;2.60;75.10;;;;;;5093647;28;20028;-79
2023/03/08 01:15:56;;;;;;;2.37;0.80;;;2.30;75.00;;;;;;5076948;28;20032;-78
2023/03/08 01:18:22;;;;;;;2.03;0.87;;;2.30;74.90;;;;;;5076823;28;20040;-79
2023/03/08 01:20:58;;;;;;;1.90;0.60;;;2.30;75.00;;;;;;5075993;28;20036;-79
2023/03/08 01:23:24;;;;;;;2.27;0.57;;;2.20;75.00;;;;;;5043691;28;20510;-79
2023/03/08 01:26:04;;;;;;;3.43;1.43;;;2.20;75.30;;;;;;5076931;28;20547;-79
2023/03/08 01:31:34;;;;;;;1.67;0.90;;;2.40;75.00;;;;;;5049902;28;20060;-79
2023/03/08 01:34:12;;;;;;;2.43;0.90;;;2.20;74.90;;;;;;5077539;28;20105;-79
2023/03/08 01:36:52;;;;;;;1.80;1.10;;;2.40;75.00;;;;;;5077062;28;20425;-79
2023/03/08 01:39:20;;;;;;;1.63;0.80;;;2.20;74.90;;;;;;5079274;28;20396;-79
2023/03/08 01:41:46;;;;;;;1.83;0.80;;;2.20;74.90;;;;;;5060482;28;20040;-79
2023/03/08 01:44:15;;;;;;;2.60;0.90;;;2.20;74.90;;;;;;5077045;28;20403;-79
2023/03/08 01:46:41;;;;;;;3.57;1.10;;;2.20;75.00;;;;;;5076797;28;20050;-80
2023/03/08 01:49:17;;;;;;;2.03;1.10;;;2.20;75.00;;;;;;5076665;28;20388;-80
2023/03/08 01:52:09;;;;;;;5.70;1.33;;;2.10;75.00;;;;;;5076606;28;20042;-79
2023/03/08 01:54:41;;;;;;;3.40;1.10;;;2.10;75.00;;;;;;5038892;28;20056;-79
2023/03/08 01:57:24;;;;;;;2.87;1.73;;;2.40;75.10;;;;;;5076452;28;20075;-80
2023/03/08 01:59:52;;;;;;;1.93;1.00;;;2.10;75.00;;;;;;5077249;28;20380;-80
2023/03/08 02:02:23;;;;;;;3.47;1.60;;;2.10;75.00;;;;;;5093417;28;20039;-80
2023/03/08 02:04:49;;;;;;;5.10;1.30;;;2.10;75.00;;;;;;5093020;28;20048;-79
2023/03/08 02:07:15;;;;;;;2.67;1.47;;;2.10;75.00;;;;;;5059761;28;20048;-79
2023/03/08 02:09:41;;;;;;;3.07;1.40;;;2.50;75.30;;;;;;5056148;28;20037;-80
2023/03/08 02:12:11;;;;;;;2.90;1.53;;;2.50;75.30;;;;;;5056295;28;20044;-80
2023/03/08 02:14:36;;;;;;;3.80;2.07;;;2.10;75.10;;;;;;5073179;28;20081;-79
2023/03/08 02:17:02;;;;;;;2.87;1.73;;;2.30;75.20;;;;;;5072793;28;20437;-80
2023/03/08 02:19:44;;;;;;;3.47;2.27;;;2.10;75.10;;;;;;5079803;28;20039;-80
2023/03/08 02:22:11;;;;;;;3.73;2.30;;;2.20;75.20;;;;;;5056029;28;20177;-80
2023/03/08 02:24:37;;;;;;;4.33;2.33;;;2.10;75.10;;;;;;5039466;28;20044;-80
2023/03/08 02:27:11;;;;;;;5.43;2.67;;;2.10;75.10;;;;;;5022964;28;20035;-80
2023/03/08 02:29:37;;;;;;;4.53;2.90;;;2.00;75.10;;;;;;5106641;28;20039;-79
2023/03/08 02:32:03;;;;;;;5.03;2.57;;;2.00;75.10;;;;;;5039102;28;20082;-79
2023/03/08 02:34:29;;;;;;;6.17;2.67;;;2.00;75.10;;;;;;5089701;28;20434;-80
2023/03/08 02:36:55;;;;;;;5.40;2.83;;;2.00;75.10;;;;;;5070204;28;20530;-79
2023/03/08 02:39:20;;;;;;;4.53;2.57;;;2.20;75.20;;;;;;5076068;28;20047;-79
2023/03/08 02:41:46;;;;;;;3.90;2.20;;;2.00;75.10;;;;;;5075910;28;20501;-80
2023/03/08 02:44:12;;;;;;;3.80;2.27;;;2.00;75.10;;;;;;5092118;28;20047;-79
2023/03/08 02:46:37;;;;;;;4.80;2.60;;;2.00;75.10;;;;;;5075611;28;20105;-80
2023/03/08 02:49:03;;;;;;;3.83;2.60;;;2.00;75.20;;;;;;5076091;28;20127;-79
2023/03/08 02:51:29;;;;;;;4.50;3.03;;;2.60;75.60;;;;;;5092535;28;20039;-80
2023/03/08 02:53:54;;;;;;;5.10;3.03;;;2.20;75.40;;;;;;5075849;28;20047;-79
2023/03/08 02:56:20;;;;;;;4.57;2.80;;;2.00;75.30;;;;;;5076053;28;20040;-79
2023/03/08 02:58:46;;;;;;;3.33;2.53;;;2.50;75.60;;;;;;5076097;28;20114;-79
2023/03/08 03:01:12;;;;;;;4.23;3.03;;;2.00;75.30;;;;;;5059020;28;20112;-79
2023/03/08 03:03:39;;;;;;;3.77;2.80;;;2.10;75.40;;;;;;5092414;28;20122;-79
2023/03/08 03:06:11;;;;;;;4.17;2.43;;;2.00;75.40;;;;;;5075401;28;20109;-79
2023/03/08 03:08:37;;;;;;;4.03;2.53;;;2.00;75.40;;;;;;5075040;28;20063;-79
2023/03/08 03:11:10;;;;;;;4.73;2.77;;;2.00;75.50;;;;;;5058982;28;20040;-79
2023/03/08 03:13:36;;;;;;;6.37;3.27;;;2.00;75.50;;;;;;5071993;28;20037;-80
2023/03/08 03:16:07;;;;;;;4.50;3.20;;;2.00;75.50;;;;;;5039077;28;20052;-79
2023/03/08 03:18:33;;;;;;;5.83;3.43;;;2.00;75.50;;;;;;5073813;28;20392;-79
2023/03/08 03:21:08;;;;;;;5.23;3.67;;;2.50;75.70;;;;;;5066847;28;20040;-79
2023/03/08 03:23:34;;;;;;;;;;;2.00;75.40;;;;;;5092519;28;20432;-80
2023/03/08 03:26:08;;;;;;;4.93;3.33;;;2.00;75.20;;;;;;5078970;28;19938;-79
2023/03/08 03:28:34;;;;;;;5.82;3.67;;;2.60;75.70;;;;;;5092747;28;20137;-80
2023/03/08 03:31:00;;;;;;;4.77;3.13;;;2.00;75.30;;;;;;5092813;28;20080;-79
2023/03/08 03:33:26;;;;;;;4.33;3.07;;;2.00;75.30;;;;;;5075706;28;20051;-79
2023/03/08 03:35:51;;;;;;;5.57;2.83;;;2.00;75.30;;;;;;5075710;28;20040;-79
2023/03/08 03:38:17;;;;;;;5.77;2.43;;;1.90;75.20;;;;;;5092555;28;20564;-79
2023/03/08 03:40:43;;;;;;;5.27;2.73;;;2.50;75.60;;;;;;5058512;28;20462;-79
2023/03/08 03:43:08;;;;;;;3.73;2.60;;;2.00;75.30;;;;;;5056464;28;20037;-78
2023/03/08 03:45:34;;;;;;;4.17;2.60;;;2.00;75.20;;;;;;5042544;28;20048;-79
2023/03/08 03:48:00;;;;;;;4.87;3.00;;;2.00;75.20;;;;;;5042380;28;20483;-79
2023/03/08 03:50:26;;;;;;;5.57;2.97;;;2.50;75.60;;;;;;5026153;28;20036;-79
2023/03/08 03:52:51;;;;;;;4.40;2.60;;;2.00;75.20;;;;;;5075540;28;20096;-79
2023/03/08 03:55:17;;;;;;;3.43;2.43;;;2.00;75.30;;;;;;5030804;28;20119;-79
2023/03/08 03:57:43;;;;;;;4.30;2.73;;;1.90;75.20;;;;;;5062224;28;20774;-79
2023/03/08 04:00:11;;;;;;;5.93;3.03;;;2.00;75.30;;;;;;5062093;28;20036;-79
2023/03/08 04:02:36;;;;;;;4.53;2.70;;;2.00;75.30;;;;;;5062684;28;20080;-79
2023/03/08 04:05:02;;;;;;;4.80;2.87;;;2.00;75.30;;;;;;5045298;28;20120;-80
2023/03/08 04:07:28;;;;;;;5.73;3.03;;;1.90;75.20;;;;;;5078552;28;20056;-80
2023/03/08 04:09:54;;;;;;;5.50;2.87;;;1.90;75.20;;;;;;5062224;28;20040;-79
2023/03/08 04:12:19;;;;;;;6.03;2.97;;;1.90;75.20;;;;;;5078865;28;20384;-80
2023/03/08 04:14:45;;;;;;;4.03;2.90;;;2.00;75.20;;;;;;5062227;28;20044;-80
2023/03/08 04:17:11;;;;;;;5.20;3.00;;;2.10;75.30;;;;;;5045260;28;20536;-80
2023/03/08 04:19:36;;;;;;;5.93;3.30;;;1.90;75.10;;;;;;5045162;28;20044;-80
2023/03/08 04:22:02;;;;;;;5.00;2.73;;;1.90;75.10;;;;;;5078450;28;20039;-80
2023/03/08 04:24:28;;;;;;;4.33;3.00;;;1.90;75.10;;;;;;5078358;28;20385;-80
2023/03/08 04:26:54;;;;;;;5.53;3.10;;;1.90;75.00;;;;;;5061891;28;20047;-80
2023/03/08 04:29:20;;;;;;;5.13;2.97;;;2.30;75.30;;;;;;5078274;28;20126;-80
2023/03/08 04:31:45;;;;;;;7.80;3.53;;;1.90;75.10;;;;;;5045064;28;20040;-80
2023/03/08 04:34:11;;;;;;;6.07;3.23;;;2.10;75.20;;;;;;5045374;28;20047;-80
2023/03/08 04:36:36;;;;;;;7.53;4.20;;;2.20;75.30;;;;;;5044971;28;20044;-79
2023/03/08 04:39:02;;;;;;;5.73;3.97;;;2.10;75.30;;;;;;5078319;28;20040;-80
2023/03/08 04:41:28;;;;;;;4.80;3.33;;;1.80;75.20;;;;;;5078377;28;20044;-80
2023/03/08 04:43:55;;;;;;;5.43;3.20;;;1.80;75.20;;;;;;5077687;28;20510;-80
2023/03/08 04:46:24;;;;;;;10.60;6.27;;;2.40;75.60;;;;;;5094763;28;20097;-80
2023/03/08 04:48:54;;;;;;;13.67;7.27;;;1.80;75.20;;;;;;5095105;28;20028;-78
2023/03/08 04:51:22;;;;;;;8.27;4.13;;;1.80;75.10;;;;;;5078096;28;20122;-80
2023/03/08 04:53:48;;;;;;;8.73;4.33;;;1.80;75.00;;;;;;5077509;28;20616;-79
2023/03/08 04:56:15;;;;;;;8.73;4.10;;;2.30;75.30;;;;;;5094535;28;20119;-79
2023/03/08 04:58:42;;;;;;;7.40;4.37;;;1.80;75.10;;;;;;5077881;28;20119;-80
2023/03/08 05:01:17;;;;;;;9.97;5.20;;;1.80;75.10;;;;;;5060890;28;20043;-80
2023/03/08 05:03:44;;;;;;;8.93;5.07;;;1.80;75.20;;;;;;5077162;28;20044;-79
2023/03/08 05:06:11;;;;;;;7.07;4.50;;;1.80;75.10;;;;;;5098182;28;20039;-79
2023/03/08 05:08:37;;;;;;;8.03;4.23;;;1.80;75.00;;;;;;5093995;28;20140;-79
2023/03/08 05:11:03;;;;;;;8.63;4.17;;;1.70;74.90;;;;;;5094497;28;20110;-80
2023/03/08 05:13:34;;;;;;;7.30;4.30;;;1.70;75.00;;;;;;5094356;28;20094;-80
2023/03/08 05:16:01;;;;;;;8.13;4.40;;;1.70;75.10;;;;;;5077360;28;20119;-80
2023/03/08 05:18:26;;;;;;;7.83;4.07;;;1.70;75.10;;;;;;5044446;28;20035;-80
2023/03/08 05:20:57;;;;;;;6.50;4.03;;;2.20;75.40;;;;;;5060594;28;20479;-80
2023/03/08 05:23:25;;;;;;;5.30;3.50;;;1.70;75.10;;;;;;5077226;28;20075;-78
2023/03/08 05:25:53;;;;;;;6.00;4.20;;;1.60;74.90;;;;;;5077368;28;20139;-79
2023/03/08 05:28:19;;;;;;;6.73;3.97;;;1.60;75.00;;;;;;5077028;28;20123;-79
2023/03/08 05:30:45;;;;;;;6.50;3.93;;;2.00;75.20;;;;;;5077391;28;20438;-79
2023/03/08 05:33:10;;;;;;;5.63;3.60;;;1.60;75.00;;;;;;5060179;28;20040;-79
2023/03/08 05:35:36;;;;;;;6.23;4.00;;;1.60;74.90;;;;;;5077484;28;20039;-79
2023/03/08 05:38:02;;;;;;;5.20;3.50;;;1.60;74.90;;;;;;5080279;28;20039;-79
2023/03/08 05:40:28;;;;;;;7.53;4.00;;;1.60;74.80;;;;;;5079729;28;20071;-79
2023/03/08 05:42:54;;;;;;;6.10;3.90;;;1.80;74.80;;;;;;5080640;28;20126;-79
2023/03/08 05:45:20;;;;;;;6.07;3.97;;;1.80;74.80;;;;;;5076756;28;20480;-79
2023/03/08 05:47:45;;;;;;;5.33;3.60;;;1.50;74.60;;;;;;5077059;28;20040;-79
2023/03/08 05:50:11;;;;;;;6.67;3.57;;;1.70;74.80;;;;;;5076717;28;20040;-80
2023/03/08 05:52:37;;;;;;;5.77;3.67;;;1.50;74.70;;;;;;5060071;28;20414;-80
2023/03/08 05:55:04;;;;;;;7.80;3.90;;;1.60;74.80;;;;;;5093420;27;20069;-80
2023/03/08 05:57:30;;;;;;;6.80;3.70;;;1.50;74.70;;;;;;5076082;28;20110;-80
2023/03/08 05:59:55;;;;;;;6.67;4.20;;;1.70;74.70;;;;;;5059825;28;20036;-80
2023/03/08 06:02:21;;;;;;;6.70;3.60;;;1.40;74.50;;;;;;5059889;28;20672;-80
2023/03/08 06:04:47;;;;;;;5.20;4.10;;;1.40;74.50;;;;;;5056355;28;20073;-80
2023/03/08 06:07:12;;;;;;;6.33;3.70;;;1.50;74.50;;;;;;5056364;28;20037;-80
2023/03/08 06:09:38;;;;;;;7.57;4.33;;;1.90;74.70;;;;;;5073037;28;20071;-80
2023/03/08 06:12:04;;;;;;;7.77;3.97;;;1.40;74.50;;;;;;5023376;28;20036;-81
2023/03/08 06:14:30;;;;;;;6.53;3.90;;;1.30;74.40;;;;;;5073099;28;20508;-80
2023/03/08 06:16:55;;;;;;;7.23;4.30;;;1.30;74.50;;;;;;5073136;28;20036;-80
2023/03/08 06:19:21;;;;;;;5.97;4.00;;;1.30;74.40;;;;;;5095565;28;20036;-80
2023/03/08 06:21:47;;;;;;;6.77;3.87;;;1.70;74.60;;;;;;5094805;28;20064;-80
2023/03/08 06:24:12;;;;;;;7.57;3.77;;;1.20;74.30;;;;;;5076168;28;20098;-80
2023/03/08 06:26:38;;;;;;;5.00;4.03;;;1.60;74.50;;;;;;5092927;28;20042;-80
2023/03/08 06:29:04;;;;;;;5.90;4.07;;;1.20;74.40;;;;;;5076153;28;20046;-80
2023/03/08 06:31:29;;;;;;;6.47;4.13;;;1.80;74.90;;;;;;5092109;28;20502;-80
2023/03/08 06:33:55;;;;;;;7.97;4.53;;;1.60;74.90;;;;;;5076233;28;20063;-80
2023/03/08 06:36:21;;;;;;;6.73;3.77;;;1.10;74.60;;;;;;5075756;28;20089;-81
2023/03/08 06:38:47;;;;;;;5.30;3.73;;;1.10;74.60;;;;;;5092634;28;20042;-77
2023/03/08 06:41:15;;;;;;;7.90;3.80;;;1.10;74.60;;;;;;5092961;28;20055;-80
2023/03/08 06:43:41;;;;;;;6.17;4.00;;;1.70;75.40;;;;;;5092729;28;20032;-81
2023/03/08 06:46:12;;;;;;;7.43;3.90;;;1.00;74.60;;;;;;5075831;28;20478;-80
2023/03/08 06:48:38;;;;;;;7.77;4.20;;;1.00;74.70;;;;;;5075824;28;20385;-80
2023/03/08 06:51:05;;;;;;;5.87;4.03;;;1.50;75.10;;;;;;5059258;28;20049;-80
2023/03/08 06:53:31;;;;;;;8.83;3.90;;;1.40;75.20;;;;;;5076192;28;20069;-80
2023/03/08 06:55:57;;;;;;;5.40;4.13;;;0.90;75.00;;;;;;5075703;28;20036;-82
2023/03/08 06:58:23;;;;;;;6.67;4.13;;;0.90;75.20;;;;;;5058763;28;20039;-81
2023/03/08 07:00:48;;;;;;;6.00;3.60;;;1.00;75.40;;;;;;5042390;28;20110;-82
2023/03/08 07:03:15;;;;;;;5.93;3.70;;;1.00;75.60;;;;;;5075463;28;20119;-81
2023/03/08 07:05:41;;;;;;;5.73;3.83;;;1.20;75.80;;;;;;5075109;28;20093;-85
2023/03/08 07:08:07;;;;;;;5.57;4.10;;;1.00;75.70;;;;;;5075519;28;20101;-82
2023/03/08 07:10:33;;;;;;;6.00;4.20;;;1.00;75.70;;;;;;5058918;28;20044;-82
2023/03/08 07:12:58;;;;;;;5.40;3.87;;;1.00;75.70;;;;;;5076019;28;20042;-82
2023/03/08 07:15:24;;;;;;;7.17;4.17;;;1.00;75.80;;;;;;5058257;28;20036;-82
2023/03/08 07:17:54;;;;;;;5.40;3.60;;;1.00;75.70;;;;;;5074651;28;20040;-82
2023/03/08 07:20:21;;;;;;;6.23;3.60;;;1.00;75.60;;;;;;5074574;28;20127;-82
2023/03/08 07:22:47;;;;;;;6.93;3.87;;;1.00;75.70;;;;;;5057964;28;20047;-82
2023/03/08 07:25:14;;;;;;;5.53;3.97;;;1.10;75.90;;;;;;5074555;28;20043;-82
2023/03/08 07:27:40;;;;;;;5.73;4.10;;;1.70;76.40;;;;;;5074763;28;20040;-82
2023/03/08 07:30:08;;;;;;;5.73;3.70;;;1.50;76.50;;;;;;5074898;28;20043;-82
2023/03/08 07:32:35;;;;;;;6.50;3.90;;;1.00;76.20;;;;;;5075348;28;20044;-82
2023/03/08 07:35:00;;;;;;;7.20;4.30;;;1.10;76.40;;;;;;5075128;28;20048;-82
2023/03/08 07:37:26;;;;;;;6.90;4.10;;;1.40;76.70;;;;;;5074912;28;20177;-82
2023/03/08 07:39:52;;;;;;;6.97;4.17;;;1.10;76.70;;;;;;5091712;28;20051;-82
2023/03/08 07:42:18;;;;;;;7.77;4.20;;;1.00;76.60;;;;;;5058469;28;20040;-81
2023/03/08 07:44:44;;;;;;;6.13;3.80;;;1.60;77.10;;;;;;5091841;28;20094;-82
2023/03/08 07:47:10;;;;;;;5.87;4.17;;;1.10;76.90;;;;;;5058281;28;20117;-82
2023/03/08 07:49:36;;;;;;;5.43;3.97;;;1.10;77.00;;;;;;5075071;28;20036;-82
2023/03/08 07:52:02;;;;;;;4.87;3.87;;;1.20;77.10;;;;;;5074824;28;20047;-82
2023/03/08 07:54:27;;;;;;;5.57;4.10;;;1.10;77.10;;;;;;5074958;28;20044;-81
2023/03/08 07:56:54;;;;;;;6.80;4.90;;;1.20;77.20;;;;;;5074896;28;20051;-81
2023/03/08 07:59:21;;;;;;;7.17;5.00;;;1.20;77.20;;;;;;5077718;28;20392;-81
2023/03/08 08:01:47;;;;;;;8.77;5.20;;;1.20;77.10;;;;;;5061585;28;20100;-81
2023/03/08 08:04:13;;;;;;;8.27;5.57;;;1.80;77.50;;;;;;5077988;28;20044;-81
2023/03/08 08:06:39;;;;;;;7.93;6.03;;;1.70;77.50;;;;;;5076787;28;20036;-82
2023/03/08 08:09:06;;;;;;;9.43;5.73;;;1.30;77.30;;;;;;5074602;28;20090;-82
2023/03/08 08:11:33;;;;;;;7.73;5.40;;;1.70;77.70;;;;;;5074665;28;20073;-81
2023/03/08 08:14:00;;;;;;;9.23;5.80;;;1.20;77.50;;;;;;5058197;28;20459;-81
2023/03/08 08:16:26;;;;;;;9.07;6.00;;;1.60;77.80;;;;;;5058136;28;20098;-81
2023/03/08 08:18:52;;;;;;;8.17;5.57;;;1.30;77.80;;;;;;5091481;28;20075;-81
2023/03/08 08:21:17;;;;;;;11.20;6.50;;;1.70;78.10;;;;;;5057788;28;20039;-81
2023/03/08 08:23:43;;;;;;;6.63;5.87;;;1.30;78.10;;;;;;5058190;28;20055;-81
2023/03/08 08:26:18;;;;;;;8.40;5.97;;;1.40;78.40;;;;;;5057945;28;20068;-81
2023/03/08 08:28:45;;;;;;;7.55;5.60;;;1.40;78.50;;;;;;5074345;28;20040;-81
2023/03/08 08:31:14;;;;;;;8.27;6.27;;;1.80;78.60;;;;;;5044267;28;20143;-80
2023/03/08 08:33:40;;;;;;;9.00;5.73;;;2.00;78.80;;;;;;5095085;28;20036;-80
2023/03/08 08:36:08;;;;;;;8.43;5.77;;;1.50;78.50;;;;;;5061547;28;20040;-80
2023/03/08 08:38:34;;;;;;;10.77;5.70;;;1.50;78.60;;;;;;5077930;28;20071;-80
2023/03/08 08:41:02;;;;;;;7.63;5.93;;;1.50;78.80;;;;;;5061556;28;20040;-80
2023/03/08 08:43:28;;;;;;;9.63;5.87;;;1.70;79.10;;;;;;5095424;28;20039;-80
2023/03/08 08:45:56;;;;;;;7.53;5.93;;;1.70;79.70;;;;;;5061284;28;20051;-80
2023/03/08 08:48:23;;;;;;;9.23;6.07;;;1.80;79.30;;;;;;5077950;28;20040;-80
2023/03/08 08:50:49;;;;;;;8.23;5.80;;;2.20;79.50;;;;;;5057460;28;20037;-79
2023/03/08 08:53:15;;;;;;;9.77;5.90;;;1.90;79.10;;;;;;5074727;28;20063;-79
2023/03/08 08:55:40;;;;;;;8.63;6.10;;;2.10;79.00;;;;;;5067096;28;20483;-79
2023/03/08 08:58:07;;;;;;;9.83;6.70;;;2.00;78.80;;;;;;5077731;28;20040;-79
2023/03/08 09:00:34;;;;;;;9.17;6.07;;;2.00;78.80;;;;;;5060904;28;20047;-79
2023/03/08 09:03:00;;;;;;;8.27;6.40;;;2.10;78.90;;;;;;5077529;28;20044;-79
2023/03/08 09:05:27;;;;;;;8.67;6.90;;;2.10;78.60;;;;;;5060831;28;20074;-79
2023/03/08 09:07:57;;;;;;;8.60;6.73;;;2.60;78.80;;;;;;5077339;28;20134;-79
2023/03/08 09:10:27;;;;;;;11.97;6.93;;;2.20;78.40;;;;;;5061368;28;20043;-79
2023/03/08 09:12:53;;;;;;;10.63;6.77;;;2.20;78.30;;;;;;5077442;28;20052;-79
2023/03/08 09:15:20;;;;;;;11.70;7.77;;;2.50;78.30;;;;;;5094514;28;20097;-79
2023/03/08 09:17:46;;;;;;;10.23;7.93;;;2.20;78.10;;;;;;5077443;28;20047;-79
2023/03/08 09:20:13;;;;;;;9.63;7.73;;;2.30;78.20;;;;;;5060696;28;20076;-79
2023/03/08 09:22:39;;;;;;;11.00;8.07;;;2.20;78.00;;;;;;5044046;28;20088;-80
2023/03/08 09:25:06;;;;;;;12.80;7.90;;;2.40;78.20;;;;;;5060457;28;20044;-79
2023/03/08 09:27:33;;;;;;;10.20;7.43;;;2.30;78.10;;;;;;5060314;28;20036;-79
2023/03/08 09:29:59;;;;;;;8.90;7.10;;;2.70;78.40;;;;;;5094244;28;20489;-79
2023/03/08 09:32:25;;;;;;;9.70;7.73;;;2.30;78.10;;;;;;5060652;28;20099;-79
2023/03/08 09:34:52;;;;;;;11.40;8.00;;;2.30;78.00;;;;;;5094011;28;20078;-79
2023/03/08 09:37:17;;;;;;;11.93;8.23;;;2.30;78.00;;;;;;5093787;28;20089;-79
2023/03/08 09:39:44;;;;;;;10.00;7.57;;;2.30;78.10;;;;;;5060331;28;20040;-79
2023/03/08 09:42:23;;;;;;;10.87;8.00;;;2.40;78.30;;;;;;5059925;28;20502;-79
2023/03/08 09:45:27;;;;;;;10.83;8.07;;;2.40;78.30;;;;;;5056761;28;20037;-79
2023/03/08 09:48:09;;;;;;;9.37;7.60;;;2.40;78.40;;;;;;5064783;28;20036;-79
2023/03/08 09:50:48;;;;;;;12.40;7.63;;;2.50;78.50;;;;;;5076831;28;20083;-79
2023/03/08 09:53:27;;;;;;;7.50;6.17;;;2.50;78.60;;;;;;5076544;28;20040;-79
2023/03/08 09:56:14;;;;;;;9.00;6.70;;;2.50;78.50;;;;;;5093356;28;20044;-79
2023/03/08 09:58:47;;;;;;;9.00;5.67;;;2.60;78.60;;;;;;5076103;28;20082;-79
2023/03/08 10:01:37;;;;;;;7.53;5.40;;;2.60;78.70;;;;;;5076380;28;20050;-79
2023/03/08 10:04:22;;;;;;;9.03;6.23;;;2.60;78.70;;;;;;5093449;28;20472;-79
2023/03/08 10:07:06;;;;;;;7.10;5.00;;;2.70;79.00;;;;;;5076172;28;20483;-79
2023/03/08 10:09:38;;;;;;;7.77;6.00;;;2.70;79.00;;;;;;5076215;28;20502;-79
2023/03/08 10:12:14;;;;;;;10.37;6.23;;;3.00;79.20;;;;;;5076155;28;20051;-79
2023/03/08 10:14:53;;;;;;;9.13;5.13;;;2.80;79.10;;;;;;5076470;28;20116;-79
2023/03/08 10:17:23;;;;;;;9.07;6.33;;;2.90;79.20;;;;;;5076357;28;20549;-79
2023/03/08 10:20:15;;;;;;;7.97;6.23;;;3.30;79.50;;;;;;5076422;28;20126;-79
2023/03/08 10:22:41;;;;;;;7.93;6.20;;;3.00;79.40;;;;;;5063041;28;20066;-79
2023/03/08 10:25:22;;;;;;;8.17;6.50;;;3.00;79.30;;;;;;5059489;28;20090;-79
2023/03/08 10:27:51;;;;;;;11.43;6.90;;;3.10;79.10;;;;;;5076038;28;20032;-79
2023/03/08 10:30:19;;;;;;;11.65;7.50;;;3.10;78.90;;;;;;5092877;28;20051;-80
2023/03/08 10:32:47;;;;;;;10.70;7.00;;;3.20;79.00;;;;;;5092738;28;20078;-79
2023/03/08 10:35:14;;;;;;;8.90;7.40;;;3.20;79.00;;;;;;5076096;28;20434;-79
2023/03/08 10:37:40;;;;;;;8.88;6.45;;;3.40;79.20;;;;;;5075751;28;20518;-80
2023/03/08 10:40:14;;;;;;;8.52;6.30;;;3.60;79.30;;;;;;5075712;28;20047;-80
2023/03/08 10:42:58;;;;;;;8.68;6.70;;;3.40;79.00;;;;;;5076006;28;20051;-79
2023/03/08 10:45:25;;;;;;;8.55;5.15;;;3.50;79.00;;;;;;5055826;28;20073;-80
2023/03/08 10:47:58;;;;;;;6.88;4.93;;;3.50;78.80;;;;;;5089613;28;20044;-80
2023/03/08 10:50:29;;;;;;;8.57;4.45;;;3.60;78.50;;;;;;5055760;28;20390;-80
2023/03/08 10:52:55;;;;;;;8.27;4.50;;;3.70;78.40;;;;;;5071972;28;20463;-80
2023/03/08 10:55:28;;;;;;;8.77;5.10;;;3.60;78.10;;;;;;5072108;28;20086;-80
2023/03/08 10:57:56;;;;;;;8.05;4.85;;;3.90;78.20;;;;;;5056609;28;20074;-80
2023/03/08 11:00:35;;;;;;;7.72;5.22;;;3.80;77.70;;;;;;5092670;28;20143;-80
2023/03/08 11:03:03;;;;;;;6.57;5.00;;;3.80;77.30;;;;;;5091771;28;20039;-79
2023/03/08 11:05:29;;;;;;;6.65;5.22;;;3.80;77.30;;;;;;5074945;28;20127;-80
2023/03/08 11:07:57;;;;;;;7.10;4.55;;;3.90;77.50;;;;;;5091750;28;20533;-80
2023/03/08 11:10:30;;;;;;;8.80;5.43;;;4.00;77.00;;;;;;5092260;28;20044;-80
2023/03/08 11:13:15;;;;;;;6.38;4.53;;;4.00;76.50;;;;;;5059073;28;20032;-79
2023/03/08 11:15:47;;;;;;;6.72;4.53;;;4.00;76.30;;;;;;5075458;28;20040;-79
2023/03/08 11:18:47;;;;;;;6.63;4.40;;;4.00;76.00;;;;;;5092276;28;20048;-80
2023/03/08 11:21:19;;;;;;;7.15;4.15;;;4.00;75.50;;;;;;5024957;28;20044;-79
2023/03/08 11:24:17;;;;;;;9.15;3.60;;;4.10;75.50;;;;;;5075025;28;20494;-80
2023/03/08 11:26:49;;;;;;;5.70;2.53;;;4.00;74.90;;;;;;5075148;28;20479;-80
2023/03/08 11:29:58;;;;;;;4.65;3.45;;;4.10;75.00;;;;;;5075281;28;20047;-80
2023/03/08 11:32:52;;;;;;;6.32;3.63;;;4.10;74.00;;;;;;5092190;28;20032;-80
2023/03/08 11:35:32;;;;;;;7.15;3.67;;;4.10;74.10;;;;;;5094922;28;20040;-79
2023/03/08 11:38:25;;;;;;;6.10;4.10;;;4.20;74.10;;;;;;5074879;28;20040;-80
2023/03/08 11:41:13;;;;;;;7.60;4.50;;;4.20;74.00;;;;;;5075400;28;20136;-80
2023/03/08 11:43:58;;;;;;;7.65;4.72;;;4.20;73.80;;;;;;5091631;28;20048;-80
2023/03/08 11:46:58;;;;;;;8.80;5.43;;;4.30;74.00;;;;;;5074925;28;20040;-80
2023/03/08 11:49:42;;;;;;;7.05;4.70;;;4.30;74.30;;;;;;5070893;28;20105;-80
2023/03/08 11:52:29;;;;;;;5.80;3.90;;;4.40;74.40;;;;;;5091625;28;20418;-80
2023/03/08 11:55:19;;;;;;;6.82;3.55;;;4.40;74.20;;;;;;5075192;28;20134;-80
2023/03/08 11:57:53;;;;;;;5.93;3.05;;;4.40;73.90;;;;;;5075153;28;20501;-80
2023/03/08 12:00:23;;;;;;;5.90;2.75;;;4.40;73.60;;;;;;5075423;28;20144;-80
2023/03/08 12:02:49;;;;;;;3.97;2.60;;;4.40;73.10;;;;;;5074747;28;20044;-80
2023/03/08 12:05:37;;;;;;;5.55;2.75;;;4.40;72.60;;;;;;5044954;28;20399;-80
2023/03/08 12:08:27;;;;;;;4.53;3.10;;;4.40;71.70;;;;;;5095331;28;20101;-80
2023/03/08 12:11:02;;;;;;;6.90;2.90;;;4.50;71.30;;;;;;5078532;28;20477;-80
2023/03/08 12:13:35;;;;;;;;;;;4.40;71.40;;;;;;5079112;28;20443;-80
2023/03/08 12:16:15;;;;;;;7.32;2.72;;;4.40;71.50;;;;;;5078823;28;19923;-80
2023/03/08 12:18:48;;;;;;;6.20;3.30;;;4.40;71.60;;;;;;5078114;28;20491;-79
2023/03/08 12:21:40;;;;;;;8.43;3.67;;;4.40;71.70;;;;;;5078018;28;20036;-79
2023/03/08 12:24:59;;;;;;;6.18;2.95;;;4.40;71.60;;;;;;5078390;28;20096;-79
2023/03/08 12:27:29;;;;;;;5.93;3.38;;;4.40;71.40;;;;;;5001109;28;20471;-79
2023/03/08 12:30:04;;;;;;;7.80;3.85;;;4.40;71.20;;;;;;5033865;28;20080;-79
2023/03/08 12:32:31;;;;;;;5.65;3.67;;;4.40;70.70;;;;;;5042122;28;20048;-79
2023/03/08 12:35:27;;;;;;;7.18;3.58;;;4.40;70.70;;;;;;5076321;28;20079;-80
2023/03/08 12:37:56;;;;;;;6.05;2.97;;;4.40;70.60;;;;;;5078244;28;20135;-79
2023/03/08 12:40:30;;;;;;;8.02;3.33;;;4.50;70.60;;;;;;5078334;28;20133;-79
2023/03/08 12:43:05;;;;;;;4.97;3.22;;;4.40;70.60;;;;;;5078263;28;20048;-79
2023/03/08 12:45:31;;;;;;;7.63;3.55;;;4.40;70.50;;;;;;5077839;28;20080;-79
2023/03/08 12:48:06;;;;;;;9.02;4.00;;;4.40;70.50;;;;;;5077710;28;20032;-79
2023/03/08 12:50:36;;;;;;;8.32;3.55;;;4.40;70.30;;;;;;5077969;28;20101;-79
2023/03/08 12:53:02;;;;;;;6.78;3.40;;;4.40;70.20;;;;;;5077759;28;20067;-80
2023/03/08 12:55:32;;;;;;;5.97;3.70;;;4.40;70.00;;;;;;5061328;28;20036;-79
2023/03/08 12:58:03;;;;;;;5.38;3.35;;;4.40;69.60;;;;;;5095130;28;20040;-79
2023/03/08 13:00:37;;;;;;;7.20;3.50;;;4.40;69.30;;;;;;5077574;28;20043;-79
2023/03/08 13:03:11;;;;;;;9.82;3.65;;;4.40;69.30;;;;;;5077451;28;20391;-79
2023/03/08 13:05:39;;;;;;;6.93;3.42;;;4.40;69.30;;;;;;5094393;28;20433;-79
2023/03/08 13:08:11;;;;;;;6.13;3.20;;;4.50;69.60;;;;;;5077433;28;20048;-80
2023/03/08 13:10:51;;;;;;;7.28;3.28;;;4.40;69.40;;;;;;5077376;28;20040;-80
2023/03/08 13:13:24;;;;;;;6.30;3.72;;;4.50;68.80;;;;;;5077230;28;20036;-80